createdAt,value
2018-05-26T00:00:58.729Z,19.04
2018-05-26T00:01:58.662Z,19.04
2018-05-26T00:02:58.589Z,19.07
2018-05-26T00:03:58.520Z,19.02
2018-05-26T00:04:58.451Z,18.94
2018-05-26T00:05:58.395Z,18.87
2018-05-26T00:06:58.320Z,18.88
2018-05-26T00:07:58.243Z,18.91
2018-05-26T00:08:58.183Z,18.91
2018-05-26T00:09:58.106Z,18.87
2018-05-26T00:10:58.036Z,18.85
2018-05-26T00:11:57.964Z,18.87
2018-05-26T00:12:57.905Z,18.88
2018-05-26T00:13:57.819Z,18.82
2018-05-26T00:14:57.763Z,18.82
2018-05-26T00:15:57.689Z,18.75
2018-05-26T00:16:57.621Z,18.72
2018-05-26T00:17:57.546Z,18.75
2018-05-26T00:18:57.485Z,18.65
2018-05-26T00:19:57.414Z,18.69
2018-05-26T00:20:57.363Z,18.66
2018-05-26T00:21:57.277Z,18.67
2018-05-26T00:22:57.206Z,18.58
2018-05-26T00:23:57.131Z,18.67
2018-05-26T00:24:57.060Z,18.67
2018-05-26T00:25:56.993Z,18.55
2018-05-26T00:26:56.934Z,18.52
2018-05-26T00:27:56.850Z,18.67
2018-05-26T00:28:56.799Z,18.57
2018-05-26T00:29:56.766Z,18.54
2018-05-26T00:30:56.643Z,18.57
2018-05-26T00:31:56.571Z,18.60
2018-05-26T00:32:56.508Z,18.58
2018-05-26T00:33:56.433Z,18.65
2018-05-26T00:34:56.359Z,18.69
2018-05-26T00:35:56.295Z,18.60
2018-05-26T00:36:56.225Z,18.57
2018-05-26T00:37:56.156Z,18.57
2018-05-26T00:38:56.100Z,18.60
2018-05-26T00:39:56.046Z,18.51
2018-05-26T00:40:55.948Z,18.50
2018-05-26T00:41:55.879Z,18.58
2018-05-26T00:42:55.811Z,18.55
2018-05-26T00:43:55.733Z,18.54
2018-05-26T00:44:55.673Z,18.52
2018-05-26T00:45:55.604Z,18.42
2018-05-26T00:46:55.535Z,18.37
2018-05-26T00:47:55.461Z,18.41
2018-05-26T00:48:55.386Z,18.39
2018-05-26T00:49:55.320Z,18.30
2018-05-26T00:50:55.290Z,18.33
2018-05-26T00:51:55.194Z,18.36
2018-05-26T00:52:55.119Z,18.39
2018-05-26T00:53:55.048Z,18.32
2018-05-26T00:54:54.966Z,18.32
2018-05-26T00:55:54.897Z,18.30
2018-05-26T00:56:54.830Z,18.32
2018-05-26T00:57:54.759Z,18.26
2018-05-26T00:58:54.703Z,18.21
2018-05-26T00:59:54.622Z,18.25
2018-05-26T01:00:54.553Z,18.32
2018-05-26T01:01:54.479Z,18.25
2018-05-26T01:02:54.410Z,18.27
2018-05-26T01:03:54.336Z,18.26
2018-05-26T01:04:54.272Z,18.25
2018-05-26T01:05:54.201Z,18.21
2018-05-26T01:06:54.129Z,18.20
2018-05-26T01:07:54.076Z,18.14
2018-05-26T01:08:53.992Z,18.21
2018-05-26T01:09:53.919Z,18.12
2018-05-26T01:10:53.850Z,18.10
2018-05-26T01:11:53.779Z,18.12
2018-05-26T01:12:53.712Z,18.15
2018-05-26T01:13:53.640Z,18.15
2018-05-26T01:14:53.569Z,18.17
2018-05-26T01:15:53.505Z,18.11
2018-05-26T01:16:53.433Z,18.12
2018-05-26T01:17:53.361Z,18.14
2018-05-26T01:18:53.290Z,18.20
2018-05-26T01:19:53.226Z,18.20
2018-05-26T01:20:53.151Z,18.30
2018-05-26T01:21:53.089Z,18.23
2018-05-26T01:22:53.011Z,18.17
2018-05-26T01:23:52.943Z,18.12
2018-05-26T01:24:52.864Z,18.17
2018-05-26T01:25:52.810Z,18.20
2018-05-26T01:26:52.731Z,18.20
2018-05-26T01:27:52.669Z,18.20
2018-05-26T01:28:52.582Z,18.14
2018-05-26T01:29:52.531Z,18.10
2018-05-26T01:30:52.449Z,18.00
2018-05-26T01:31:52.387Z,17.96
2018-05-26T01:32:52.305Z,17.86
2018-05-26T01:33:52.255Z,17.86
2018-05-26T01:34:52.169Z,17.82
2018-05-26T01:35:52.118Z,17.71
2018-05-26T01:36:52.062Z,17.75
2018-05-26T01:37:51.967Z,17.71
2018-05-26T01:38:51.890Z,17.79
2018-05-26T01:39:51.821Z,17.63
2018-05-26T01:40:51.741Z,17.72
2018-05-26T01:41:51.685Z,17.77
2018-05-26T01:42:51.607Z,17.71
2018-05-26T01:43:51.543Z,17.78
2018-05-26T01:44:51.468Z,17.87
2018-05-26T01:45:51.406Z,17.75
2018-05-26T01:46:51.359Z,17.81
2018-05-26T01:47:51.275Z,17.75
2018-05-26T01:48:51.181Z,17.78
2018-05-26T01:49:51.158Z,17.75
2018-05-26T01:50:51.051Z,17.71
2018-05-26T01:51:50.993Z,17.71
2018-05-26T01:52:50.907Z,17.71
2018-05-26T01:53:50.843Z,17.81
2018-05-26T01:54:50.773Z,17.75
2018-05-26T01:55:50.703Z,17.79
2018-05-26T01:56:50.638Z,17.78
2018-05-26T01:57:50.555Z,17.87
2018-05-26T01:58:50.484Z,17.78
2018-05-26T01:59:50.423Z,17.86
2018-05-26T02:00:50.341Z,17.77
2018-05-26T02:01:50.280Z,17.75
2018-05-26T02:02:50.203Z,17.86
2018-05-26T02:03:50.165Z,17.78
2018-05-26T02:04:50.095Z,17.75
2018-05-26T02:05:50.004Z,17.86
2018-05-26T02:06:49.926Z,17.74
2018-05-26T02:07:49.853Z,17.71
2018-05-26T02:08:49.786Z,17.68
2018-05-26T02:09:49.741Z,17.56
2018-05-26T02:10:49.640Z,17.55
2018-05-26T02:11:49.572Z,17.46
2018-05-26T02:12:49.500Z,17.48
2018-05-26T02:13:49.435Z,17.46
2018-05-26T02:14:49.356Z,17.36
2018-05-26T02:15:49.290Z,17.43
2018-05-26T02:16:49.221Z,17.40
2018-05-26T02:17:49.152Z,17.28
2018-05-26T02:18:49.085Z,17.31
2018-05-26T02:19:49.013Z,17.34
2018-05-26T02:20:48.951Z,17.31
2018-05-26T02:21:48.869Z,17.33
2018-05-26T02:22:48.803Z,17.36
2018-05-26T02:23:48.729Z,17.33
2018-05-26T02:24:48.669Z,17.37
2018-05-26T02:25:48.587Z,17.30
2018-05-26T02:26:48.515Z,17.36
2018-05-26T02:27:48.448Z,17.38
2018-05-26T02:28:48.378Z,17.40
2018-05-26T02:29:48.300Z,17.38
2018-05-26T02:30:48.238Z,17.37
2018-05-26T02:31:48.168Z,17.26
2018-05-26T02:32:48.094Z,17.37
2018-05-26T02:33:48.019Z,17.40
2018-05-26T02:34:47.954Z,17.26
2018-05-26T02:35:47.939Z,17.33
2018-05-26T02:36:47.893Z,17.28
2018-05-26T02:37:47.741Z,17.33
2018-05-26T02:38:47.674Z,17.38
2018-05-26T02:39:47.644Z,17.26
2018-05-26T02:40:47.530Z,17.21
2018-05-26T02:41:47.453Z,17.31
2018-05-26T02:42:47.390Z,17.31
2018-05-26T02:43:47.320Z,17.18
2018-05-26T02:44:47.242Z,17.31
2018-05-26T02:45:47.176Z,17.37
2018-05-26T02:46:47.107Z,17.36
2018-05-26T02:47:47.037Z,17.31
2018-05-26T02:48:46.962Z,17.34
2018-05-26T02:49:46.895Z,17.33
2018-05-26T02:50:46.823Z,17.22
2018-05-26T02:51:46.756Z,17.22
2018-05-26T02:52:46.684Z,17.19
2018-05-26T02:53:46.628Z,17.34
2018-05-26T02:54:46.576Z,17.25
2018-05-26T02:55:46.472Z,17.19
2018-05-26T02:56:46.400Z,17.31
2018-05-26T02:57:46.322Z,17.15
2018-05-26T02:58:46.258Z,17.28
2018-05-26T02:59:46.196Z,17.23
2018-05-26T03:00:46.117Z,17.16
2018-05-26T03:01:46.051Z,17.12
2018-05-26T03:02:45.976Z,17.18
2018-05-26T03:03:45.905Z,17.16
2018-05-26T03:04:45.870Z,17.16
2018-05-26T03:05:45.764Z,16.97
2018-05-26T03:06:45.694Z,17.03
2018-05-26T03:07:45.625Z,16.98
2018-05-26T03:08:45.554Z,17.00
2018-05-26T03:09:45.480Z,17.04
2018-05-26T03:10:45.410Z,16.93
2018-05-26T03:11:45.345Z,16.89
2018-05-26T03:12:45.275Z,16.91
2018-05-26T03:13:45.203Z,16.94
2018-05-26T03:14:45.144Z,16.91
2018-05-26T03:15:45.056Z,16.94
2018-05-26T03:16:44.989Z,17.00
2018-05-26T03:17:44.928Z,16.96
2018-05-26T03:18:44.848Z,17.07
2018-05-26T03:19:44.769Z,17.06
2018-05-26T03:20:44.727Z,17.08
2018-05-26T03:21:44.629Z,17.01
2018-05-26T03:22:44.564Z,17.06
2018-05-26T03:23:44.488Z,17.00
2018-05-26T03:24:44.422Z,17.06
2018-05-26T03:25:44.351Z,17.03
2018-05-26T03:26:44.281Z,17.04
2018-05-26T03:27:44.209Z,17.04
2018-05-26T03:28:44.130Z,17.08
2018-05-26T03:29:44.065Z,17.06
2018-05-26T03:30:43.992Z,17.08
2018-05-26T03:31:43.927Z,17.07
2018-05-26T03:32:43.853Z,16.98
2018-05-26T03:33:43.783Z,17.01
2018-05-26T03:34:43.711Z,16.97
2018-05-26T03:35:43.648Z,16.98
2018-05-26T03:36:43.577Z,16.96
2018-05-26T03:37:43.501Z,17.00
2018-05-26T03:38:43.432Z,16.93
2018-05-26T03:39:43.360Z,17.03
2018-05-26T03:40:43.285Z,17.03
2018-05-26T03:41:43.216Z,17.06
2018-05-26T03:42:43.150Z,17.04
2018-05-26T03:43:43.075Z,17.12
2018-05-26T03:44:43.000Z,17.22
2018-05-26T03:45:42.931Z,17.18
2018-05-26T03:46:42.864Z,17.08
2018-05-26T03:47:42.791Z,17.15
2018-05-26T03:48:42.720Z,17.08
2018-05-26T03:49:42.648Z,17.11
2018-05-26T03:50:42.576Z,17.06
2018-05-26T03:51:42.505Z,17.06
2018-05-26T03:52:42.442Z,17.07
2018-05-26T03:53:42.364Z,17.03
2018-05-26T03:54:42.295Z,16.98
2018-05-26T03:55:42.225Z,16.97
2018-05-26T03:56:42.155Z,16.89
2018-05-26T03:57:42.079Z,16.96
2018-05-26T03:58:42.030Z,16.94
2018-05-26T03:59:41.941Z,17.00
2018-05-26T04:00:41.872Z,16.89
2018-05-26T04:01:41.802Z,16.91
2018-05-26T04:02:41.729Z,16.91
2018-05-26T04:03:41.654Z,16.91
2018-05-26T04:04:41.586Z,16.91
2018-05-26T04:05:41.536Z,16.97
2018-05-26T04:06:41.438Z,16.96
2018-05-26T04:07:41.380Z,16.97
2018-05-26T04:08:41.303Z,16.94
2018-05-26T04:09:41.235Z,16.96
2018-05-26T04:10:41.157Z,16.89
2018-05-26T04:11:41.168Z,16.89
2018-05-26T04:12:41.018Z,16.96
2018-05-26T04:13:40.952Z,17.00
2018-05-26T04:14:40.871Z,16.94
2018-05-26T04:15:40.804Z,16.96
2018-05-26T04:16:40.738Z,16.91
2018-05-26T04:17:40.681Z,16.91
2018-05-26T04:18:40.595Z,17.01
2018-05-26T04:19:40.527Z,16.94
2018-05-26T04:20:40.462Z,16.93
2018-05-26T04:21:40.379Z,16.86
2018-05-26T04:22:40.311Z,16.97
2018-05-26T04:23:40.241Z,16.91
2018-05-26T04:24:40.167Z,16.89
2018-05-26T04:25:40.097Z,16.94
2018-05-26T04:26:40.023Z,16.98
2018-05-26T04:27:39.961Z,16.97
2018-05-26T04:28:39.887Z,16.94
2018-05-26T04:29:39.811Z,16.98
2018-05-26T04:30:39.754Z,17.00
2018-05-26T04:31:39.683Z,17.11
2018-05-26T04:32:39.600Z,17.06
2018-05-26T04:33:39.527Z,17.03
2018-05-26T04:34:39.462Z,17.08
2018-05-26T04:35:39.389Z,17.18
2018-05-26T04:36:39.317Z,17.15
2018-05-26T04:37:39.246Z,17.23
2018-05-26T04:38:39.181Z,17.26
2018-05-26T04:39:39.107Z,17.26
2018-05-26T04:40:39.033Z,17.18
2018-05-26T04:41:38.963Z,17.19
2018-05-26T04:42:38.890Z,17.22
2018-05-26T04:43:38.821Z,17.34
2018-05-26T04:44:38.753Z,17.31
2018-05-26T04:45:38.746Z,17.28
2018-05-26T04:46:38.609Z,17.31
2018-05-26T04:47:38.537Z,17.23
2018-05-26T04:48:38.479Z,17.40
2018-05-26T04:49:38.400Z,17.31
2018-05-26T04:50:38.327Z,17.36
2018-05-26T04:51:38.259Z,17.37
2018-05-26T04:52:38.186Z,17.43
2018-05-26T04:53:38.112Z,17.48
2018-05-26T04:54:38.045Z,17.48
2018-05-26T04:55:37.972Z,17.46
2018-05-26T04:56:37.903Z,17.44
2018-05-26T04:57:37.831Z,17.44
2018-05-26T04:58:37.765Z,17.55
2018-05-26T04:59:37.690Z,17.64
2018-05-26T05:00:37.623Z,17.70
2018-05-26T05:01:37.559Z,17.75
2018-05-26T05:02:37.475Z,17.84
2018-05-26T05:03:37.409Z,17.82
2018-05-26T05:04:37.338Z,17.78
2018-05-26T05:05:37.287Z,17.84
2018-05-26T05:06:37.195Z,17.82
2018-05-26T05:07:37.126Z,17.87
2018-05-26T05:08:37.052Z,17.90
2018-05-26T05:09:36.983Z,18.03
2018-05-26T05:10:36.915Z,18.02
2018-05-26T05:11:36.842Z,18.12
2018-05-26T05:12:36.772Z,18.18
2018-05-26T05:13:36.705Z,18.23
2018-05-26T05:14:36.646Z,18.21
2018-05-26T05:15:36.560Z,18.32
2018-05-26T05:16:36.493Z,18.37
2018-05-26T05:17:36.420Z,18.36
2018-05-26T05:18:36.353Z,18.37
2018-05-26T05:19:36.281Z,18.41
2018-05-26T05:20:36.214Z,18.39
2018-05-26T05:21:36.141Z,18.36
2018-05-26T05:22:36.070Z,18.44
2018-05-26T05:23:35.999Z,18.51
2018-05-26T05:24:35.931Z,18.50
2018-05-26T05:25:35.860Z,18.51
2018-05-26T05:26:35.800Z,18.55
2018-05-26T05:27:35.719Z,18.62
2018-05-26T05:28:35.668Z,18.66
2018-05-26T05:29:35.577Z,18.67
2018-05-26T05:30:35.508Z,18.70
2018-05-26T05:31:35.440Z,18.69
2018-05-26T05:32:35.428Z,18.82
2018-05-26T05:33:35.295Z,18.81
2018-05-26T05:34:35.229Z,18.81
2018-05-26T05:35:35.158Z,18.91
2018-05-26T05:36:35.096Z,18.98
2018-05-26T05:37:35.033Z,19.00
2018-05-26T05:38:34.957Z,19.06
2018-05-26T05:39:34.878Z,18.98
2018-05-26T05:40:34.827Z,18.95
2018-05-26T05:41:34.736Z,18.98
2018-05-26T05:42:34.716Z,19.10
2018-05-26T05:43:34.605Z,19.07
2018-05-26T05:44:34.531Z,19.08
2018-05-26T05:45:34.466Z,19.16
2018-05-26T05:46:34.399Z,19.16
2018-05-26T05:47:34.321Z,19.18
2018-05-26T05:48:34.251Z,19.22
2018-05-26T05:49:34.180Z,19.33
2018-05-26T05:50:34.117Z,19.32
2018-05-26T05:51:34.045Z,19.36
2018-05-26T05:52:33.978Z,19.32
2018-05-26T05:53:33.902Z,19.33
2018-05-26T05:54:33.838Z,19.31
2018-05-26T05:55:33.764Z,19.37
2018-05-26T05:56:33.725Z,19.36
2018-05-26T05:57:33.625Z,19.47
2018-05-26T05:58:33.555Z,19.47
2018-05-26T05:59:33.488Z,19.55
2018-05-26T06:00:33.418Z,19.68
2018-05-26T06:01:33.349Z,19.63
2018-05-26T06:02:33.281Z,19.74
2018-05-26T06:03:33.209Z,19.74
2018-05-26T06:04:33.198Z,19.74
2018-05-26T06:05:33.065Z,19.74
2018-05-26T06:06:33.002Z,19.76
2018-05-26T06:07:32.954Z,19.84
2018-05-26T06:08:32.863Z,19.83
2018-05-26T06:09:32.791Z,19.80
2018-05-26T06:10:32.727Z,19.87
2018-05-26T06:11:32.656Z,19.94
2018-05-26T06:12:32.583Z,19.84
2018-05-26T06:13:32.522Z,19.99
2018-05-26T06:14:32.441Z,19.99
2018-05-26T06:15:32.416Z,20.02
2018-05-26T06:16:32.307Z,20.11
2018-05-26T06:17:32.238Z,20.16
2018-05-26T06:18:32.170Z,20.23
2018-05-26T06:19:32.100Z,20.20
2018-05-26T06:20:32.046Z,20.20
2018-05-26T06:21:31.980Z,20.21
2018-05-26T06:22:31.893Z,20.21
2018-05-26T06:23:31.826Z,20.20
2018-05-26T06:24:31.754Z,20.31
2018-05-26T06:25:31.688Z,20.21
2018-05-26T06:26:31.648Z,20.26
2018-05-26T06:27:31.545Z,20.33
2018-05-26T06:28:31.480Z,20.29
2018-05-26T06:29:31.419Z,20.33
2018-05-26T06:30:31.356Z,20.42
2018-05-26T06:31:31.291Z,20.41
2018-05-26T06:32:31.227Z,20.51
2018-05-26T06:33:31.140Z,20.51
2018-05-26T06:34:31.065Z,20.54
2018-05-26T06:35:30.999Z,20.54
2018-05-26T06:36:30.928Z,20.57
2018-05-26T06:37:30.860Z,20.50
2018-05-26T06:38:30.793Z,20.59
2018-05-26T06:39:30.721Z,20.54
2018-05-26T06:40:30.655Z,20.54
2018-05-26T06:41:30.587Z,20.62
2018-05-26T06:42:30.518Z,20.67
2018-05-26T06:43:30.450Z,20.72
2018-05-26T06:44:30.385Z,20.87
2018-05-26T06:45:30.322Z,20.85
2018-05-26T06:46:30.242Z,20.97
2018-05-26T06:47:30.174Z,20.89
2018-05-26T06:48:30.106Z,20.97
2018-05-26T06:49:30.045Z,21.04
2018-05-26T06:50:29.968Z,21.13
2018-05-26T06:51:29.909Z,21.19
2018-05-26T06:52:29.832Z,21.21
2018-05-26T06:53:29.763Z,21.28
2018-05-26T06:54:29.695Z,21.09
2018-05-26T06:55:29.629Z,21.21
2018-05-26T06:56:29.562Z,21.13
2018-05-26T06:57:29.496Z,21.24
2018-05-26T06:58:29.424Z,21.27
2018-05-26T06:59:29.349Z,21.38
2018-05-26T07:00:29.285Z,21.58
2018-05-26T07:01:29.215Z,21.61
2018-05-26T07:02:29.157Z,21.65
2018-05-26T07:03:29.077Z,21.72
2018-05-26T07:04:29.011Z,21.82
2018-05-26T07:05:28.945Z,21.82
2018-05-26T07:06:28.874Z,21.86
2018-05-26T07:07:28.804Z,21.90
2018-05-26T07:08:28.745Z,21.99
2018-05-26T07:09:28.669Z,22.03
2018-05-26T07:10:28.607Z,21.94
2018-05-26T07:11:28.537Z,21.98
2018-05-26T07:12:28.464Z,22.02
2018-05-26T07:13:28.400Z,22.12
2018-05-26T07:14:28.333Z,22.17
2018-05-26T07:15:28.264Z,22.17
2018-05-26T07:16:28.188Z,22.25
2018-05-26T07:17:28.127Z,22.25
2018-05-26T07:18:28.054Z,22.31
2018-05-26T07:19:28.047Z,22.36
2018-05-26T07:20:27.919Z,22.36
2018-05-26T07:21:27.854Z,22.37
2018-05-26T07:22:27.801Z,22.28
2018-05-26T07:23:27.718Z,22.28
2018-05-26T07:24:27.651Z,22.36
2018-05-26T07:25:27.582Z,22.42
2018-05-26T07:26:27.517Z,22.47
2018-05-26T07:27:27.447Z,22.49
2018-05-26T07:28:27.385Z,22.47
2018-05-26T07:29:27.309Z,22.49
2018-05-26T07:30:27.248Z,22.57
2018-05-26T07:31:27.178Z,22.70
2018-05-26T07:32:27.107Z,22.77
2018-05-26T07:33:27.040Z,22.82
2018-05-26T07:34:26.981Z,22.77
2018-05-26T07:35:26.909Z,22.94
2018-05-26T07:36:26.844Z,23.00
2018-05-26T07:37:26.774Z,23.00
2018-05-26T07:38:26.706Z,22.94
2018-05-26T07:39:26.642Z,23.09
2018-05-26T07:40:26.583Z,22.94
2018-05-26T07:41:26.507Z,22.92
2018-05-26T07:42:26.439Z,23.13
2018-05-26T07:43:26.362Z,23.07
2018-05-26T07:44:26.299Z,23.19
2018-05-26T07:45:26.232Z,23.15
2018-05-26T07:46:26.180Z,23.19
2018-05-26T07:47:26.101Z,23.13
2018-05-26T07:48:26.038Z,23.20
2018-05-26T07:49:25.961Z,23.23
2018-05-26T07:50:25.895Z,23.27
2018-05-26T07:51:25.837Z,23.43
2018-05-26T07:52:25.763Z,23.51
2018-05-26T07:53:25.694Z,23.35
2018-05-26T07:54:25.628Z,23.47
2018-05-26T07:55:25.583Z,23.51
2018-05-26T07:56:25.522Z,23.51
2018-05-26T07:57:25.430Z,23.53
2018-05-26T07:58:25.359Z,23.54
2018-05-26T07:59:25.296Z,23.55
2018-05-26T08:00:25.229Z,23.58
2018-05-26T08:01:25.157Z,23.69
2018-05-26T08:02:25.092Z,23.73
2018-05-26T08:03:25.027Z,23.80
2018-05-26T08:04:24.983Z,23.95
2018-05-26T08:05:24.893Z,23.94
2018-05-26T08:06:24.855Z,23.90
2018-05-26T08:07:24.761Z,23.95
2018-05-26T08:08:24.708Z,23.90
2018-05-26T08:09:24.625Z,23.91
2018-05-26T08:10:24.557Z,23.94
2018-05-26T08:11:24.496Z,23.98
2018-05-26T08:12:24.428Z,23.90
2018-05-26T08:13:24.353Z,24.05
2018-05-26T08:14:24.297Z,24.05
2018-05-26T08:15:24.226Z,24.06
2018-05-26T08:16:24.162Z,24.09
2018-05-26T08:17:24.147Z,24.16
2018-05-26T08:18:24.018Z,24.16
2018-05-26T08:19:23.964Z,24.13
2018-05-26T08:20:23.889Z,24.21
2018-05-26T08:21:23.824Z,24.22
2018-05-26T08:22:23.756Z,24.32
2018-05-26T08:23:23.694Z,24.42
2018-05-26T08:24:23.622Z,24.39
2018-05-26T08:25:23.559Z,24.50
2018-05-26T08:26:23.490Z,24.45
2018-05-26T08:27:23.430Z,24.45
2018-05-26T08:28:23.361Z,24.61
2018-05-26T08:29:23.290Z,24.65
2018-05-26T08:30:23.222Z,24.68
2018-05-26T08:31:23.212Z,24.77
2018-05-26T08:32:23.102Z,24.78
2018-05-26T08:33:23.027Z,24.81
2018-05-26T08:34:22.962Z,24.93
2018-05-26T08:35:22.895Z,24.83
2018-05-26T08:36:22.827Z,24.90
2018-05-26T08:37:22.766Z,24.95
2018-05-26T08:38:22.696Z,24.99
2018-05-26T08:39:22.631Z,24.87
2018-05-26T08:40:22.566Z,24.78
2018-05-26T08:41:22.499Z,24.91
2018-05-26T08:42:22.433Z,24.93
2018-05-26T08:43:22.366Z,24.84
2018-05-26T08:44:22.299Z,24.78
2018-05-26T08:45:22.237Z,24.77
2018-05-26T08:46:22.180Z,24.88
2018-05-26T08:47:22.120Z,24.91
2018-05-26T08:48:22.674Z,24.95
2018-05-26T08:49:21.985Z,24.99
2018-05-26T08:50:21.907Z,25.06
2018-05-26T08:51:21.845Z,25.13
2018-05-26T08:52:21.771Z,25.20
2018-05-26T08:53:21.748Z,25.21
2018-05-26T08:54:21.646Z,25.21
2018-05-26T08:55:21.584Z,25.33
2018-05-26T08:56:21.550Z,25.46
2018-05-26T08:57:21.445Z,25.51
2018-05-26T08:58:21.378Z,25.46
2018-05-26T08:59:21.315Z,25.36
2018-05-26T09:00:21.252Z,25.38
2018-05-26T09:01:21.183Z,25.51
2018-05-26T09:02:21.161Z,25.51
2018-05-26T09:03:21.054Z,25.57
2018-05-26T09:04:21.021Z,25.72
2018-05-26T09:05:20.923Z,25.91
2018-05-26T09:06:20.888Z,25.79
2018-05-26T09:07:20.793Z,25.83
2018-05-26T09:08:20.757Z,25.87
2018-05-26T09:09:20.689Z,25.83
2018-05-26T09:10:20.600Z,25.92
2018-05-26T09:11:20.548Z,25.99
2018-05-26T09:12:20.485Z,26.13
2018-05-26T09:13:20.441Z,26.21
2018-05-26T09:14:20.345Z,26.37
2018-05-26T09:15:20.282Z,26.63
2018-05-26T09:16:20.225Z,27.02
2018-05-26T09:17:20.168Z,27.21
2018-05-26T09:18:20.096Z,27.13
2018-05-26T09:19:20.030Z,27.02
2018-05-26T09:20:20.001Z,27.32
2018-05-26T09:21:19.913Z,27.82
2018-05-26T09:22:19.847Z,27.60
2018-05-26T09:23:19.791Z,27.87
2018-05-26T09:24:19.731Z,27.94
2018-05-26T09:25:19.732Z,28.39
2018-05-26T09:26:19.618Z,28.83
2018-05-26T09:27:19.561Z,29.12
2018-05-26T09:28:19.495Z,29.68
2018-05-26T09:29:19.439Z,29.48
2018-05-26T09:30:19.449Z,29.55
2018-05-26T09:31:19.353Z,29.79
2018-05-26T09:32:19.263Z,30.15
2018-05-26T09:33:19.207Z,30.58
2018-05-26T09:34:19.159Z,31.38
2018-05-26T09:35:19.114Z,31.12
2018-05-26T09:36:19.041Z,29.33
2018-05-26T09:37:18.988Z,30.00
2018-05-26T09:38:18.935Z,30.31
2018-05-26T09:39:18.875Z,30.58
2018-05-26T09:40:18.820Z,29.67
2018-05-26T09:41:18.768Z,30.53
2018-05-26T09:42:18.710Z,30.80
2018-05-26T09:43:18.663Z,29.90
2018-05-26T09:44:18.602Z,30.24
2018-05-26T09:45:18.544Z,30.38
2018-05-26T09:46:18.736Z,31.36
2018-05-26T09:47:18.437Z,31.26
2018-05-26T09:48:18.383Z,31.99
2018-05-26T09:49:18.329Z,32.33
2018-05-26T09:50:18.281Z,32.29
2018-05-26T09:51:18.224Z,32.37
2018-05-26T09:52:18.169Z,32.30
2018-05-26T09:53:18.112Z,31.96
2018-05-26T09:54:18.066Z,32.08
2018-05-26T09:55:18.023Z,32.82
2018-05-26T09:56:17.967Z,32.03
2018-05-26T09:57:17.901Z,32.67
2018-05-26T09:58:17.843Z,33.29
2018-05-26T09:59:17.795Z,33.14
2018-05-26T10:00:17.749Z,32.92
2018-05-26T10:01:17.688Z,33.11
2018-05-26T10:02:17.636Z,32.77
2018-05-26T10:03:17.580Z,32.82
2018-05-26T10:04:17.547Z,32.66
2018-05-26T10:05:17.481Z,33.21
2018-05-26T10:06:17.434Z,33.93
2018-05-26T10:07:17.386Z,34.15
2018-05-26T10:08:17.326Z,34.77
2018-05-26T10:09:17.283Z,35.10
2018-05-26T10:10:17.219Z,35.22
2018-05-26T10:11:17.167Z,35.34
2018-05-26T10:12:17.177Z,35.68
2018-05-26T10:13:17.065Z,35.94
2018-05-26T10:14:17.013Z,36.39
2018-05-26T10:15:16.960Z,35.25
2018-05-26T10:16:16.911Z,34.17
2018-05-26T10:17:16.859Z,34.24
2018-05-26T10:18:16.804Z,33.93
2018-05-26T10:19:16.756Z,34.30
2018-05-26T10:20:16.710Z,34.66
2018-05-26T10:21:16.651Z,33.95
2018-05-26T10:22:16.598Z,33.76
2018-05-26T10:23:16.552Z,33.87
2018-05-26T10:24:16.508Z,33.22
2018-05-26T10:25:16.448Z,33.11
2018-05-26T10:26:16.444Z,32.82
2018-05-26T10:27:16.346Z,32.93
2018-05-26T10:28:16.290Z,31.62
2018-05-26T10:29:16.245Z,31.88
2018-05-26T10:30:16.187Z,32.10
2018-05-26T10:31:16.133Z,32.10
2018-05-26T10:32:16.093Z,31.50
2018-05-26T10:33:16.038Z,31.78
2018-05-26T10:34:15.975Z,31.88
2018-05-26T10:35:15.921Z,32.03
2018-05-26T10:36:15.871Z,32.30
2018-05-26T10:37:15.818Z,33.11
2018-05-26T10:38:15.781Z,32.63
2018-05-26T10:39:15.726Z,32.48
2018-05-26T10:40:15.655Z,32.10
2018-05-26T10:41:15.604Z,32.15
2018-05-26T10:42:15.549Z,31.35
2018-05-26T10:43:15.491Z,31.23
2018-05-26T10:44:15.436Z,31.20
2018-05-26T10:45:15.391Z,31.53
2018-05-26T10:46:15.363Z,30.67
2018-05-26T10:47:15.274Z,30.53
2018-05-26T10:48:15.212Z,30.72
2018-05-26T10:49:15.146Z,30.77
2018-05-26T10:50:15.097Z,30.38
2018-05-26T10:51:15.042Z,30.73
2018-05-26T10:52:14.982Z,30.82
2018-05-26T10:53:14.924Z,30.84
2018-05-26T10:54:14.867Z,30.42
2018-05-26T10:55:14.809Z,30.08
2018-05-26T10:56:14.750Z,30.27
2018-05-26T10:57:14.691Z,30.27
2018-05-26T10:58:14.639Z,30.38
2018-05-26T10:59:14.572Z,30.27
2018-05-26T11:00:14.516Z,30.37
2018-05-26T11:01:14.454Z,30.46
2018-05-26T11:02:14.398Z,30.58
2018-05-26T11:03:14.334Z,30.45
2018-05-26T11:04:14.353Z,30.54
2018-05-26T11:05:14.218Z,30.91
2018-05-26T11:06:14.161Z,31.16
2018-05-26T11:07:14.095Z,31.31
2018-05-26T11:08:14.043Z,30.49
2018-05-26T11:09:13.980Z,30.05
2018-05-26T11:10:13.923Z,30.24
2018-05-26T11:11:13.875Z,30.34
2018-05-26T11:12:13.808Z,30.29
2018-05-26T11:13:13.744Z,30.61
2018-05-26T11:14:13.683Z,30.83
2018-05-26T11:15:13.623Z,30.37
2018-05-26T11:16:13.784Z,30.16
2018-05-26T11:17:13.496Z,29.78
2018-05-26T11:18:13.456Z,29.53
2018-05-26T11:19:13.393Z,29.58
2018-05-26T11:20:13.361Z,30.29
2018-05-26T11:21:13.264Z,30.42
2018-05-26T11:22:13.209Z,30.64
2018-05-26T11:23:13.140Z,31.06
2018-05-26T11:24:13.126Z,30.92
2018-05-26T11:25:13.026Z,30.13
2018-05-26T11:26:13.065Z,30.16
2018-05-26T11:27:12.908Z,30.65
2018-05-26T11:28:12.854Z,30.73
2018-05-26T11:29:12.836Z,31.12
2018-05-26T11:30:12.729Z,31.23
2018-05-26T11:31:12.669Z,31.41
2018-05-26T11:32:12.610Z,31.50
2018-05-26T11:33:12.556Z,31.29
2018-05-26T11:34:12.492Z,31.21
2018-05-26T11:35:12.432Z,31.35
2018-05-26T11:36:12.371Z,31.12
2018-05-26T11:37:12.420Z,30.05
2018-05-26T11:38:12.257Z,30.23
2018-05-26T11:39:12.200Z,29.87
2018-05-26T11:40:12.133Z,29.71
2018-05-26T11:41:12.071Z,29.02
2018-05-26T11:42:12.019Z,29.23
2018-05-26T11:43:11.953Z,29.57
2018-05-26T11:44:11.893Z,29.65
2018-05-26T11:45:11.842Z,29.80
2018-05-26T11:46:11.773Z,29.90
2018-05-26T11:47:11.712Z,29.97
2018-05-26T11:48:11.668Z,30.01
2018-05-26T11:49:11.582Z,29.76
2018-05-26T11:50:11.541Z,29.49
2018-05-26T11:51:11.474Z,29.42
2018-05-26T11:52:11.418Z,29.37
2018-05-26T11:53:11.346Z,29.61
2018-05-26T11:54:11.283Z,29.89
2018-05-26T11:55:11.225Z,30.05
2018-05-26T11:56:11.201Z,29.86
2018-05-26T11:57:11.103Z,29.68
2018-05-26T11:58:11.040Z,29.80
2018-05-26T11:59:10.976Z,29.92
2018-05-26T12:00:10.921Z,30.05
2018-05-26T12:01:10.858Z,30.07
2018-05-26T12:02:10.861Z,29.60
2018-05-26T12:03:10.736Z,29.65
2018-05-26T12:04:10.681Z,29.55
2018-05-26T12:05:10.613Z,29.58
2018-05-26T12:06:10.556Z,29.68
2018-05-26T12:07:10.488Z,29.58
2018-05-26T12:08:10.425Z,29.61
2018-05-26T12:09:10.360Z,29.74
2018-05-26T12:10:10.310Z,29.80
2018-05-26T12:11:10.244Z,29.82
2018-05-26T12:12:10.179Z,29.76
2018-05-26T12:13:10.115Z,29.95
2018-05-26T12:14:10.076Z,30.04
2018-05-26T12:15:09.986Z,29.92
2018-05-26T12:16:09.933Z,29.70
2018-05-26T12:17:09.869Z,29.82
2018-05-26T12:18:09.829Z,29.86
2018-05-26T12:19:09.745Z,29.76
2018-05-26T12:20:09.686Z,29.90
2018-05-26T12:21:09.665Z,29.79
2018-05-26T12:22:09.561Z,29.78
2018-05-26T12:23:09.499Z,29.86
2018-05-26T12:24:09.490Z,29.89
2018-05-26T12:25:09.379Z,29.68
2018-05-26T12:26:09.310Z,29.78
2018-05-26T12:27:09.247Z,29.83
2018-05-26T12:28:09.190Z,29.95
2018-05-26T12:29:09.125Z,29.89
2018-05-26T12:30:09.062Z,30.04
2018-05-26T12:31:08.998Z,30.07
2018-05-26T12:32:08.931Z,30.05
2018-05-26T12:33:08.873Z,29.97
2018-05-26T12:34:08.818Z,29.90
2018-05-26T12:35:08.749Z,30.04
2018-05-26T12:36:08.690Z,30.10
2018-05-26T12:37:08.628Z,30.07
2018-05-26T12:38:08.562Z,30.08
2018-05-26T12:39:08.502Z,29.85
2018-05-26T12:40:08.474Z,29.89
2018-05-26T12:41:08.370Z,29.83
2018-05-26T12:42:08.319Z,29.74
2018-05-26T12:43:08.253Z,29.70
2018-05-26T12:44:08.199Z,29.70
2018-05-26T12:45:08.132Z,29.79
2018-05-26T12:46:08.065Z,29.76
2018-05-26T12:47:08.009Z,29.70
2018-05-26T12:48:07.944Z,29.76
2018-05-26T12:49:07.881Z,29.89
2018-05-26T12:50:07.814Z,30.02
2018-05-26T12:51:07.762Z,30.10
2018-05-26T12:52:07.722Z,30.04